Global Glory — 3FHR8 — position and weather

sailwx.info

Track history (hours):
 
Tides and Currents Weather Stations Pressure Air Temp Water Temp Dewpoint Dewpoint Depression Visibility Wind Speed Wind Dir Waves Ship Positions

Global Glory

Last reported at 2015-May-20 12:33 UTC. Time now 2015-May-26 13:53 UTC.
Position N 30°55' E 123°58'.

Length 189 m; draft 6 m.

Type: Cargo ship. MMSI: 354338000.

Date/timePositionNaut miles runAvg speedWind from/ knotsBaromVisibWave heightAir tempDewpointWater temp
2015-May-20 12:33N 30°55' E 123°58'2711.7
2015-May-20 10:14N 30°55' E 123°26'912.7
2015-May-20 09:33N 30°54' E 123°16'1313.3
2015-May-20 08:33N 30°54' E 123°01'1313.2
2015-May-20 07:33N 30°55' E 122°45'1312.9
2015-May-20 06:33N 30°59' E 122°31'2311.7
2015-May-20 04:32N 31°04' E 122°04'9 9.1
2015-May-20 03:34N 31°08' E 121°55'10 9.6
2015-May-20 02:34N 31°15' E 121°47'8 7.8
2015-May-20 01:32N 31°21' E 121°41'0 0.0
2015-May-20 00:32N 31°21' E 121°41'0 0.0
2015-May-19 23:32N 31°21' E 121°41'0 0.0
2015-May-19 22:32N 31°21' E 121°41'0 0.1
2015-May-19 21:29N 31°21' E 121°41'0 0.0
2015-May-19 20:32N 31°21' E 121°41'0 0.2
2015-May-19 19:29N 31°21' E 121°41'0 0.1
2015-May-19 18:32N 31°21' E 121°41'0 0.0
2015-May-19 17:32N 31°21' E 121°41'0 0.0
2015-May-19 16:32N 31°21' E 121°41'0 0.0
2015-May-19 15:32N 31°21' E 121°41'0 0.1
2015-May-19 14:29N 31°21' E 121°41'0 0.2
2015-May-19 13:29N 31°21' E 121°41'0 0.0
2015-May-19 12:29N 31°21' E 121°41'0 0.1
2015-May-19 11:32N 31°21' E 121°41'0 0.0
2015-May-19 10:32N 31°21' E 121°41'0 0.0
2015-May-19 09:33N 31°21' E 121°41'6 6.0
2015-May-19 08:33N 31°23' E 121°34'3 3.4
2015-May-19 07:33N 31°21' E 121°31'0 0.1
2015-May-19 06:33N 31°21' E 121°31'0 0.0
2015-May-19 05:33N 31°21' E 121°31'0 0.0
2015-May-19 04:32N 31°21' E 121°31'0 0.0
2015-May-19 03:33N 31°21' E 121°31'0 0.0
2015-May-19 02:33N 31°21' E 121°31'0 0.0
2015-May-19 01:33N 31°21' E 121°31'0 0.0
2015-May-19 00:33N 31°21' E 121°31'0 0.0
2015-May-18 23:33N 31°21' E 121°31'0 0.0
2015-May-18 22:33N 31°21' E 121°31'0 0.0
2015-May-18 21:33N 31°21' E 121°31'0 0.0
2015-May-18 20:33N 31°21' E 121°31'0 0.0
2015-May-18 19:33N 31°21' E 121°31'0 0.0
2015-May-18 18:33N 31°21' E 121°31'0 0.0
2015-May-18 17:33N 31°21' E 121°31'0 0.0
2015-May-18 16:33N 31°21' E 121°31'0 0.0
2015-May-18 15:33N 31°21' E 121°31'0 0.0
2015-May-18 14:33N 31°21' E 121°31'0 0.1
2015-May-18 13:33N 31°21' E 121°31'0 0.1
2015-May-18 12:33N 31°21' E 121°31'0 0.0
2015-May-18 11:33N 31°21' E 121°31'0 0.0
2015-May-18 10:33N 31°21' E 121°31'0 0.0
2015-May-18 09:33N 31°21' E 121°31'0 0.0
2015-May-18 08:33N 31°21' E 121°31'0 0.0
2015-May-18 07:33N 31°21' E 121°31'0 0.0
2015-May-18 06:32N 31°21' E 121°31'0 0.0
2015-May-18 05:33N 31°21' E 121°31'0 0.0
2015-May-18 04:33N 31°21' E 121°31'0 0.0
2015-May-18 03:33N 31°21' E 121°31'0 0.0
2015-May-18 02:33N 31°21' E 121°31'0 0.0
2015-May-18 01:33N 31°21' E 121°31'0 0.0
2015-May-18 00:33N 31°21' E 121°31'0 0.0
2015-May-17 23:33N 31°21' E 121°31'0 0.0
2015-May-17 22:33N 31°21' E 121°31'0 0.0
2015-May-17 21:33N 31°21' E 121°31'0 0.0
2015-May-17 20:33N 31°21' E 121°31'0 0.0
2015-May-17 19:33N 31°21' E 121°31'0 0.0
2015-May-17 18:33N 31°21' E 121°31'0 0.0
2015-May-17 17:33N 31°21' E 121°31'0 0.0
2015-May-17 16:33N 31°21' E 121°31'0 0.0
2015-May-17 15:32N 31°21' E 121°31'0 0.0
2015-May-17 14:33N 31°21' E 121°31'0 0.0
2015-May-17 13:33N 31°21' E 121°31'0 0.0
2015-May-17 12:33N 31°21' E 121°31'0 0.1
2015-May-17 11:33N 31°21' E 121°31'0 0.1
2015-May-17 10:33N 31°21' E 121°31'0 0.0
2015-May-17 09:33N 31°21' E 121°31'0 0.0
2015-May-17 08:33N 31°21' E 121°31'0 0.0
2015-May-17 07:33N 31°21' E 121°31'0 0.0
2015-May-17 06:33N 31°21' E 121°31'0 0.0
2015-May-17 05:33N 31°21' E 121°31'0 0.0
2015-May-17 04:33N 31°21' E 121°31'0 0.0
2015-May-17 03:33N 31°21' E 121°31'0 0.0
2015-May-17 02:33N 31°21' E 121°31'0 0.0
2015-May-17 01:33N 31°21' E 121°31'0 0.0
2015-May-17 00:33N 31°21' E 121°31'0 0.0
2015-May-16 23:33N 31°21' E 121°31'0 0.0
2015-May-16 22:33N 31°21' E 121°31'0 0.0
2015-May-16 21:33N 31°21' E 121°31'0 0.0
2015-May-16 20:30N 31°21' E 121°31'0 0.0
2015-May-16 19:33N 31°21' E 121°31'0 0.0
2015-May-16 18:32N 31°21' E 121°31'0 0.0
2015-May-16 17:33N 31°21' E 121°31'0 0.0
2015-May-16 16:33N 31°21' E 121°31'0 0.0
2015-May-16 15:33N 31°21' E 121°31'0 0.0
2015-May-16 14:33N 31°21' E 121°31'0 0.1
2015-May-16 13:33N 31°21' E 121°31'0 0.1
2015-May-16 12:33N 31°21' E 121°31'0 0.0
2015-May-16 11:33N 31°21' E 121°31'0 0.0
2015-May-16 10:33N 31°21' E 121°31'0 0.1
2015-May-16 09:33N 31°21' E 121°31'0 0.0
2015-May-16 08:33N 31°21' E 121°31'0 0.1
2015-May-16 07:33N 31°21' E 121°31'0 0.0
2015-May-16 06:32N 31°21' E 121°31'  
Track history (hours):
 
Tides and Currents Weather Stations Pressure Air Temp Water Temp Dewpoint Dewpoint Depression Visibility Wind Speed Wind Dir Waves Ship Positions

Global Glory

Last reported at 2015-May-20 12:33 UTC. Time now 2015-May-26 13:53 UTC.
Position N 30°55' E 123°58'.

Length 189 m; draft 6 m.

Type: Cargo ship. MMSI: 354338000.

Date/timePositionNaut miles runAvg speedWind from/ knotsBaromVisibWave heightAir tempDewpointWater temp
2015-May-20 12:33N 30°55' E 123°58'2711.7
2015-May-20 10:14N 30°55' E 123°26'912.7
2015-May-20 09:33N 30°54' E 123°16'1313.3
2015-May-20 08:33N 30°54' E 123°01'1313.2
2015-May-20 07:33N 30°55' E 122°45'1312.9
2015-May-20 06:33N 30°59' E 122°31'2311.7
2015-May-20 04:32N 31°04' E 122°04'9 9.1
2015-May-20 03:34N 31°08' E 121°55'10 9.6
2015-May-20 02:34N 31°15' E 121°47'8 7.8
2015-May-20 01:32N 31°21' E 121°41'0 0.0
2015-May-20 00:32N 31°21' E 121°41'0 0.0
2015-May-19 23:32N 31°21' E 121°41'0 0.0
2015-May-19 22:32N 31°21' E 121°41'0 0.1
2015-May-19 21:29N 31°21' E 121°41'0 0.0
2015-May-19 20:32N 31°21' E 121°41'0 0.2
2015-May-19 19:29N 31°21' E 121°41'0 0.1
2015-May-19 18:32N 31°21' E 121°41'0 0.0
2015-May-19 17:32N 31°21' E 121°41'0 0.0
2015-May-19 16:32N 31°21' E 121°41'0 0.0
2015-May-19 15:32N 31°21' E 121°41'0 0.1
2015-May-19 14:29N 31°21' E 121°41'0 0.2
2015-May-19 13:29N 31°21' E 121°41'0 0.0
2015-May-19 12:29N 31°21' E 121°41'0 0.1
2015-May-19 11:32N 31°21' E 121°41'0 0.0
2015-May-19 10:32N 31°21' E 121°41'0 0.0
2015-May-19 09:33N 31°21' E 121°41'6 6.0
2015-May-19 08:33N 31°23' E 121°34'3 3.4
2015-May-19 07:33N 31°21' E 121°31'0 0.1
2015-May-19 06:33N 31°21' E 121°31'0 0.0
2015-May-19 05:33N 31°21' E 121°31'0 0.0
2015-May-19 04:32N 31°21' E 121°31'0 0.0
2015-May-19 03:33N 31°21' E 121°31'0 0.0
2015-May-19 02:33N 31°21' E 121°31'0 0.0
2015-May-19 01:33N 31°21' E 121°31'0 0.0
2015-May-19 00:33N 31°21' E 121°31'0 0.0
2015-May-18 23:33N 31°21' E 121°31'0 0.0
2015-May-18 22:33N 31°21' E 121°31'0 0.0
2015-May-18 21:33N 31°21' E 121°31'0 0.0
2015-May-18 20:33N 31°21' E 121°31'0 0.0
2015-May-18 19:33N 31°21' E 121°31'0 0.0
2015-May-18 18:33N 31°21' E 121°31'0 0.0
2015-May-18 17:33N 31°21' E 121°31'0 0.0
2015-May-18 16:33N 31°21' E 121°31'0 0.0
2015-May-18 15:33N 31°21' E 121°31'0 0.0
2015-May-18 14:33N 31°21' E 121°31'0 0.1
2015-May-18 13:33N 31°21' E 121°31'0 0.1
2015-May-18 12:33N 31°21' E 121°31'0 0.0
2015-May-18 11:33N 31°21' E 121°31'0 0.0
2015-May-18 10:33N 31°21' E 121°31'0 0.0
2015-May-18 09:33N 31°21' E 121°31'0 0.0
2015-May-18 08:33N 31°21' E 121°31'0 0.0
2015-May-18 07:33N 31°21' E 121°31'0 0.0
2015-May-18 06:32N 31°21' E 121°31'0 0.0
2015-May-18 05:33N 31°21' E 121°31'0 0.0
2015-May-18 04:33N 31°21' E 121°31'0 0.0
2015-May-18 03:33N 31°21' E 121°31'0 0.0
2015-May-18 02:33N 31°21' E 121°31'0 0.0
2015-May-18 01:33N 31°21' E 121°31'0 0.0
2015-May-18 00:33N 31°21' E 121°31'0 0.0
2015-May-17 23:33N 31°21' E 121°31'0 0.0
2015-May-17 22:33N 31°21' E 121°31'0 0.0
2015-May-17 21:33N 31°21' E 121°31'0 0.0
2015-May-17 20:33N 31°21' E 121°31'0 0.0
2015-May-17 19:33N 31°21' E 121°31'0 0.0
2015-May-17 18:33N 31°21' E 121°31'0 0.0
2015-May-17 17:33N 31°21' E 121°31'0 0.0
2015-May-17 16:33N 31°21' E 121°31'0 0.0
2015-May-17 15:32N 31°21' E 121°31'0 0.0
2015-May-17 14:33N 31°21' E 121°31'0 0.0
2015-May-17 13:33N 31°21' E 121°31'0 0.0
2015-May-17 12:33N 31°21' E 121°31'0 0.1
2015-May-17 11:33N 31°21' E 121°31'0 0.1
2015-May-17 10:33N 31°21' E 121°31'0 0.0
2015-May-17 09:33N 31°21' E 121°31'0 0.0
2015-May-17 08:33N 31°21' E 121°31'0 0.0
2015-May-17 07:33N 31°21' E 121°31'0 0.0
2015-May-17 06:33N 31°21' E 121°31'0 0.0
2015-May-17 05:33N 31°21' E 121°31'0 0.0
2015-May-17 04:33N 31°21' E 121°31'0 0.0
2015-May-17 03:33N 31°21' E 121°31'0 0.0
2015-May-17 02:33N 31°21' E 121°31'0 0.0
2015-May-17 01:33N 31°21' E 121°31'0 0.0
2015-May-17 00:33N 31°21' E 121°31'0 0.0
2015-May-16 23:33N 31°21' E 121°31'0 0.0
2015-May-16 22:33N 31°21' E 121°31'0 0.0
2015-May-16 21:33N 31°21' E 121°31'0 0.0
2015-May-16 20:30N 31°21' E 121°31'0 0.0
2015-May-16 19:33N 31°21' E 121°31'0 0.0
2015-May-16 18:32N 31°21' E 121°31'0 0.0
2015-May-16 17:33N 31°21' E 121°31'0 0.0
2015-May-16 16:33N 31°21' E 121°31'0 0.0
2015-May-16 15:33N 31°21' E 121°31'0 0.0
2015-May-16 14:33N 31°21' E 121°31'0 0.1
2015-May-16 13:33N 31°21' E 121°31'0 0.1
2015-May-16 12:33N 31°21' E 121°31'0 0.0
2015-May-16 11:33N 31°21' E 121°31'0 0.0
2015-May-16 10:33N 31°21' E 121°31'0 0.1
2015-May-16 09:33N 31°21' E 121°31'0 0.0
2015-May-16 08:33N 31°21' E 121°31'0 0.1
2015-May-16 07:33N 31°21' E 121°31'0 0.0
2015-May-16 06:32N 31°21' E 121°31'  

Dump ship's entire track history